Time;durP1;ratioP1;P1;durP2;ratioP2;P2;SDS_P1;SDS_P2;PMS_P1;PMS_P2;Temp;Humidity;BMP_temperature;BMP_pressure;BME280_temperature;BME280_humidity;BME280_pressure;Samples;Min_cycle;Max_cycle;Signal;HPM_P1;HPM_P2
2024/03/16 00:01:12;;;;;;;2.60;1.60;;;;;;;11.46;100.00;100356.34;5025843;28;20448;-70
2024/03/16 00:03:41;;;;;;;1.40;1.30;;;;;;;11.38;100.00;100355.75;4998134;28;20425;-70
2024/03/16 00:06:10;;;;;;;1.47;1.37;;;;;;;11.33;100.00;100348.28;4997975;28;20495;-72
2024/03/16 00:08:39;;;;;;;1.93;1.77;;;;;;;11.42;100.00;100359.69;5009968;28;20442;-70
2024/03/16 00:14:43;;;;;;;1.73;1.23;;;;;;;11.46;100.00;100363.63;5013287;28;20805;-70
2024/03/16 00:17:12;;;;;;;3.73;3.53;;;;;;;11.51;100.00;100364.63;5008876;28;20440;-71
2024/03/16 00:19:41;;;;;;;2.50;1.47;;;;;;;11.55;100.00;100370.44;5029778;28;20457;-71
2024/03/16 00:22:10;;;;;;;2.50;1.63;;;;;;;11.63;100.00;100362.84;5029695;28;20475;-72
2024/03/16 00:24:38;;;;;;;1.30;1.20;;;;;;;11.69;100.00;100356.53;4993378;28;20925;-71
2024/03/16 00:27:08;;;;;;;1.40;0.90;;;;;;;11.65;100.00;100359.91;5021627;28;20933;-71
2024/03/16 00:29:37;;;;;;;1.40;1.17;;;;;;;11.60;100.00;100357.88;4997479;28;20452;-70
2024/03/16 00:32:06;;;;;;;2.60;1.73;;;;;;;11.74;100.00;100362.16;5029683;28;20734;-71
2024/03/16 00:34:35;;;;;;;1.77;1.63;;;;;;;11.64;100.00;100361.78;5013228;28;20540;-71
2024/03/16 00:37:05;;;;;;;1.10;0.70;;;;;;;11.51;100.00;100358.38;5004430;28;20433;-71
2024/03/16 00:39:35;;;;;;;2.70;1.10;;;;;;;11.39;100.00;100350.13;5013449;28;20895;-72
2024/03/16 00:42:03;;;;;;;1.90;0.90;;;;;;;11.35;100.00;100362.44;5028754;28;20953;-71
2024/03/16 00:44:32;;;;;;;1.77;0.90;;;;;;;11.41;100.00;100355.31;5012651;28;20532;-70
2024/03/16 00:47:01;;;;;;;3.10;1.53;;;;;;;11.38;100.00;100350.34;5028804;28;20463;-72
2024/03/16 00:49:30;;;;;;;2.20;1.70;;;;;;;11.52;100.00;100346.50;4998210;28;20499;-70
2024/03/16 00:51:59;;;;;;;2.80;1.30;;;;;;;11.43;100.00;100347.78;4997396;28;20429;-71
2024/03/16 00:54:28;;;;;;;1.97;1.17;;;;;;;11.48;100.00;100348.78;4997640;28;20410;-71
2024/03/16 00:56:57;;;;;;;2.20;1.33;;;;;;;11.39;100.00;100355.53;4998551;28;20491;-70
2024/03/16 00:59:28;;;;;;;2.17;1.20;;;;;;;11.41;100.00;100355.31;4999260;28;20455;-68
2024/03/16 01:01:57;;;;;;;1.20;1.00;;;;;;;11.54;100.00;100356.03;5014333;28;20433;-70
2024/03/16 01:04:27;;;;;;;1.10;0.73;;;;;;;11.56;100.00;100348.53;5001371;28;20460;-70
2024/03/16 01:06:56;;;;;;;1.60;0.80;;;;;;;11.66;100.00;100351.56;5004514;28;20852;-71
2024/03/16 01:09:25;;;;;;;1.47;1.00;;;;;;;11.72;100.00;100344.41;5031982;28;20468;-71
2024/03/16 01:11:54;;;;;;;1.30;0.90;;;;;;;11.63;100.00;100349.28;5015455;28;20445;-71
2024/03/16 01:14:23;;;;;;;2.30;1.17;;;;;;;11.58;100.00;100348.28;4999748;28;20485;-72
2024/03/16 01:16:52;;;;;;;1.20;1.03;;;;;;;11.46;100.00;100342.78;5030415;28;20450;-72
2024/03/16 01:19:20;;;;;;;1.53;0.97;;;;;;;11.54;100.00;100353.34;5024862;28;20464;-72
2024/03/16 01:21:49;;;;;;;1.70;1.00;;;;;;;11.50;100.00;100349.41;5014992;28;20491;-71
2024/03/16 01:24:18;;;;;;;1.90;1.27;;;;;;;11.64;100.00;100352.84;5027755;28;20429;-71
2024/03/16 01:26:47;;;;;;;5.50;1.50;;;;;;;11.76;100.00;100351.91;5028756;28;20429;-71
2024/03/16 01:29:16;;;;;;;2.80;1.20;;;;;;;11.73;100.00;100352.38;5027820;28;20453;-71
2024/03/16 01:31:45;;;;;;;2.40;1.10;;;;;;;11.81;100.00;100348.56;5018957;28;20437;-70
2024/03/16 01:34:14;;;;;;;2.00;1.40;;;;;;;11.83;100.00;100349.13;4993501;28;20536;-72
2024/03/16 01:36:43;;;;;;;1.93;0.93;;;;;;;11.89;100.00;100350.13;5028688;28;20947;-71
2024/03/16 01:39:13;;;;;;;1.43;1.00;;;;;;;11.89;100.00;100356.38;4998006;28;20544;-72
2024/03/16 01:41:41;;;;;;;1.60;1.00;;;;;;;11.91;100.00;100354.25;5012566;28;20402;-71
2024/03/16 01:44:13;;;;;;;2.40;0.83;;;;;;;11.98;100.00;100354.22;4996776;28;20923;-72
2024/03/16 01:46:42;;;;;;;2.07;1.40;;;;;;;11.98;100.00;100344.19;4998445;28;20425;-73
2024/03/16 01:49:11;;;;;;;3.20;1.10;;;;;;;12.00;100.00;100349.41;4996459;28;20442;-72
2024/03/16 01:51:40;;;;;;;1.23;1.03;;;;;;;11.94;100.00;100345.69;5028908;28;20507;-72
2024/03/16 01:54:10;;;;;;;2.53;1.20;;;;;;;12.00;100.00;100346.69;4997014;28;20496;-72
2024/03/16 01:56:39;;;;;;;1.03;0.80;;;;;;;12.03;100.00;100348.94;5030518;28;20516;-71
2024/03/16 01:59:08;;;;;;;2.87;1.30;;;;;;;12.03;100.00;100341.63;5028736;28;20460;-71
2024/03/16 02:01:37;;;;;;;1.30;1.00;;;;;;;12.14;99.40;100340.06;5011343;28;20850;-70
2024/03/16 02:04:05;;;;;;;2.03;0.80;;;;;;;12.11;99.47;100348.63;5015468;28;20520;-71
2024/03/16 02:06:34;;;;;;;1.03;0.93;;;;;;;12.05;100.00;100354.97;5012704;28;20758;-70
2024/03/16 02:09:03;;;;;;;2.13;1.07;;;;;;;11.97;100.00;100353.38;4996511;28;20850;-71
2024/03/16 02:11:32;;;;;;;7.27;1.47;;;;;;;11.97;100.00;100363.38;4993416;28;20400;-71
2024/03/16 02:14:01;;;;;;;1.30;0.90;;;;;;;11.99;100.00;100361.28;4995856;28;20544;-72
2024/03/16 02:16:30;;;;;;;1.43;1.00;;;;;;;11.99;100.00;100350.44;5006874;28;20459;-72
2024/03/16 02:18:59;;;;;;;0.97;0.63;;;;;;;11.91;100.00;100359.69;5006924;28;20456;-71
2024/03/16 02:21:28;;;;;;;1.97;1.10;;;;;;;11.97;100.00;100364.22;5012348;28;20444;-71
2024/03/16 02:23:57;;;;;;;1.10;0.67;;;;;;;12.05;99.63;100354.97;5019716;28;20433;-72
2024/03/16 02:26:26;;;;;;;1.40;1.30;;;;;;;11.96;100.00;100356.31;5030426;28;20415;-70
2024/03/16 02:28:56;;;;;;;1.30;0.70;;;;;;;12.01;100.00;100357.28;5016386;28;20443;-71
2024/03/16 02:31:25;;;;;;;1.00;0.60;;;;;;;12.03;100.00;100357.06;5030108;28;20856;-70
2024/03/16 02:33:55;;;;;;;1.27;1.17;;;;;;;12.05;99.42;100366.63;5012573;28;20449;-71
2024/03/16 02:36:24;;;;;;;1.13;1.00;;;;;;;12.18;98.93;100362.97;5016891;28;20407;-71
2024/03/16 02:38:53;;;;;;;1.40;0.90;;;;;;;12.12;98.95;100361.16;5010372;28;21260;-71
2024/03/16 02:41:22;;;;;;;0.90;0.80;;;;;;;12.18;99.40;100371.94;5003454;28;20520;-71
2024/03/16 02:43:51;;;;;;;1.83;0.83;;;;;;;12.10;99.40;100374.13;4995220;28;20547;-71
2024/03/16 02:46:20;;;;;;;1.30;0.90;;;;;;;11.98;100.00;100370.47;5011065;28;20421;-71
2024/03/16 02:48:49;;;;;;;1.00;0.77;;;;;;;11.89;100.00;100369.13;5011028;28;20410;-71
2024/03/16 02:51:18;;;;;;;1.67;1.23;;;;;;;11.93;100.00;100373.88;5027050;28;20503;-71
2024/03/16 02:53:47;;;;;;;1.77;1.20;;;;;;;11.91;100.00;100372.44;5037251;28;20460;-72
2024/03/16 02:56:17;;;;;;;1.77;1.03;;;;;;;11.81;100.00;100374.81;4996457;28;20425;-71
2024/03/16 02:58:46;;;;;;;1.20;0.73;;;;;;;11.73;100.00;100368.63;5011432;28;20434;-70
2024/03/16 03:01:15;;;;;;;1.03;0.90;;;;;;;11.76;100.00;100379.00;5024978;28;20849;-71
2024/03/16 03:03:44;;;;;;;2.03;1.33;;;;;;;11.68;100.00;100371.13;5026010;28;20433;-70
2024/03/16 03:06:13;;;;;;;1.40;0.87;;;;;;;11.72;100.00;100372.38;5007063;28;20437;-72
2024/03/16 03:08:43;;;;;;;1.33;0.80;;;;;;;11.74;100.00;100369.47;5031190;28;20441;-70
2024/03/16 03:11:12;;;;;;;1.57;0.80;;;;;;;11.63;100.00;100373.69;5021624;28;20470;-70
2024/03/16 03:13:41;;;;;;;1.73;1.07;;;;;;;11.59;100.00;100372.47;5016320;28;21006;-71
2024/03/16 03:16:11;;;;;;;1.10;1.00;;;;;;;11.60;100.00;100368.72;5016733;28;20448;-71
2024/03/16 03:18:40;;;;;;;1.27;0.77;;;;;;;11.51;100.00;100367.34;4996786;28;20430;-71
2024/03/16 03:21:09;;;;;;;1.63;0.93;;;;;;;11.44;100.00;100369.25;5014986;28;20441;-71
2024/03/16 03:23:38;;;;;;;1.40;1.07;;;;;;;11.40;100.00;100381.59;5010371;28;20434;-70
2024/03/16 03:26:08;;;;;;;1.23;1.03;;;;;;;11.54;100.00;100375.00;5013674;28;20493;-70
2024/03/16 03:28:36;;;;;;;2.27;1.40;;;;;;;11.55;100.00;100376.69;5019272;28;20439;-70
2024/03/16 03:31:06;;;;;;;1.57;0.90;;;;;;;11.60;100.00;100376.84;5016039;28;20444;-72
2024/03/16 03:33:35;;;;;;;1.43;1.00;;;;;;;11.58;100.00;100381.66;4985365;28;21037;-71
2024/03/16 03:36:04;;;;;;;1.20;0.60;;;;;;;11.60;100.00;100379.56;5014466;28;20837;-71
2024/03/16 03:38:33;;;;;;;1.50;1.30;;;;;;;11.69;100.00;100382.81;5014328;28;20471;-72
2024/03/16 03:41:02;;;;;;;0.83;0.60;;;;;;;11.58;100.00;100384.34;5014589;28;20771;-71
2024/03/16 03:43:33;;;;;;;3.10;1.30;;;;;;;11.50;100.00;100384.63;5014817;28;20437;-72
2024/03/16 03:46:04;;;;;;;1.33;0.83;;;;;;;11.31;100.00;100391.88;5017203;28;20856;-70
2024/03/16 03:48:43;;;;;;;1.43;1.17;;;;;;;11.39;100.00;100388.03;5027204;28;20459;-70
2024/03/16 03:51:13;;;;;;;1.40;0.90;;;;;;;11.29;100.00;100385.81;5015561;28;20435;-71
2024/03/16 03:53:42;;;;;;;1.40;1.00;;;;;;;11.22;100.00;100384.22;5026279;28;20392;-71
2024/03/16 03:56:10;;;;;;;1.77;1.03;;;;;;;11.36;100.00;100382.25;5033595;28;20464;-72
2024/03/16 03:58:40;;;;;;;1.40;1.27;;;;;;;11.30;100.00;100379.38;5005582;28;20506;-71
2024/03/16 04:01:09;;;;;;;1.10;1.00;;;;;;;11.44;100.00;100381.97;5000480;28;20436;-72
2024/03/16 04:03:38;;;;;;;1.20;0.90;;;;;;;11.45;100.00;100380.94;5016101;28;20445;-72
2024/03/16 04:06:07;;;;;;;1.43;1.33;;;;;;;11.39;100.00;100382.63;5003953;28;20478;-73
2024/03/16 04:08:36;;;;;;;1.03;0.77;;;;;;;11.29;100.00;100377.69;5014342;28;20433;-71
2024/03/16 04:11:05;;;;;;;1.07;0.80;;;;;;;11.28;100.00;100380.63;5015036;28;20436;-71
2024/03/16 04:13:35;;;;;;;2.70;1.47;;;;;;;11.39;100.00;100384.50;5014864;28;20417;-71
2024/03/16 04:16:04;;;;;;;2.00;1.13;;;;;;;11.42;100.00;100381.38;5003265;28;20441;-71
2024/03/16 04:18:33;;;;;;;1.27;1.10;;;;;;;11.36;100.00;100388.50;5013561;28;20435;-72
2024/03/16 04:21:03;;;;;;;3.33;1.37;;;;;;;11.31;100.00;100377.50;5013869;28;20436;-71
2024/03/16 04:23:32;;;;;;;1.87;1.00;;;;;;;11.23;100.00;100380.47;5011404;28;20791;-70
2024/03/16 04:26:01;;;;;;;1.10;0.60;;;;;;;11.30;100.00;100389.38;4997967;28;20456;-72
2024/03/16 04:28:30;;;;;;;2.10;1.73;;;;;;;11.31;100.00;100386.44;5029877;28;20463;-71
2024/03/16 04:30:59;;;;;;;2.50;0.63;;;;;;;11.26;100.00;100388.97;4997427;28;20404;-71
2024/03/16 04:33:28;;;;;;;1.67;0.63;;;;;;;11.18;100.00;100383.00;5012829;28;20437;-71
2024/03/16 04:35:57;;;;;;;1.50;1.10;;;;;;;11.15;100.00;100380.72;4994658;28;20998;-71
2024/03/16 04:38:26;;;;;;;1.40;1.30;;;;;;;10.93;100.00;100382.13;5029588;28;20429;-71
2024/03/16 04:40:56;;;;;;;1.13;1.03;;;;;;;10.98;100.00;100383.13;5029456;28;20427;-71
2024/03/16 04:43:25;;;;;;;2.30;1.20;;;;;;;11.08;100.00;100396.19;5016809;28;20421;-71
2024/03/16 04:45:54;;;;;;;2.10;1.30;;;;;;;11.07;100.00;100399.94;5003736;28;20440;-71
2024/03/16 04:48:24;;;;;;;1.50;0.90;;;;;;;10.96;100.00;100401.44;5013068;28;20397;-71
2024/03/16 04:50:53;;;;;;;1.30;1.00;;;;;;;10.80;100.00;100399.22;5013254;28;20481;-72
2024/03/16 04:53:22;;;;;;;1.50;0.90;;;;;;;10.71;100.00;100401.34;5001829;28;20853;-72
2024/03/16 04:55:53;;;;;;;1.30;1.00;;;;;;;10.75;100.00;100397.19;5014495;28;20482;-71
2024/03/16 04:58:22;;;;;;;1.00;0.60;;;;;;;10.61;100.00;100395.56;5013389;28;20830;-71
2024/03/16 05:00:51;;;;;;;0.90;0.67;;;;;;;10.58;100.00;100401.44;5014631;28;20449;-71
2024/03/16 05:03:20;;;;;;;1.40;1.30;;;;;;;10.56;100.00;100398.09;5012729;28;20436;-71
2024/03/16 05:05:51;;;;;;;1.97;1.20;;;;;;;10.69;100.00;100406.19;5012801;28;20766;-71
2024/03/16 05:08:20;;;;;;;2.67;1.63;;;;;;;10.69;100.00;100408.88;4988945;28;20428;-71
2024/03/16 05:10:51;;;;;;;2.03;1.47;;;;;;;10.80;100.00;100401.94;4996709;28;20942;-71
2024/03/16 05:13:20;;;;;;;12.83;2.33;;;;;;;10.71;100.00;100412.19;4985821;28;20875;-71
2024/03/16 05:15:49;;;;;;;1.90;1.70;;;;;;;10.85;100.00;100412.94;5028675;28;20435;-70
2024/03/16 05:18:19;;;;;;;2.07;1.20;;;;;;;10.77;100.00;100405.91;4996832;28;20433;-71
2024/03/16 05:20:47;;;;;;;2.07;1.27;;;;;;;10.71;100.00;100405.94;5012680;28;20453;-72
2024/03/16 05:23:17;;;;;;;1.20;0.90;;;;;;;10.70;100.00;100406.97;5012759;28;20435;-72
2024/03/16 05:25:47;;;;;;;3.80;2.07;;;;;;;10.70;100.00;100410.53;5013675;28;20414;-72
2024/03/16 05:28:16;;;;;;;1.03;0.87;;;;;;;10.75;100.00;100416.13;4997000;28;20876;-71
2024/03/16 05:30:45;;;;;;;1.10;0.70;;;;;;;10.65;100.00;100412.22;5012192;28;20488;-71
2024/03/16 05:33:16;;;;;;;1.93;1.20;;;;;;;10.63;100.00;100419.72;5012214;28;20971;-72
2024/03/16 05:35:46;;;;;;;1.13;1.03;;;;;;;10.73;100.00;100414.69;5012275;28;20461;-72
2024/03/16 05:38:16;;;;;;;1.60;1.20;;;;;;;10.80;100.00;100410.06;5040795;28;20501;-71
2024/03/16 05:40:47;;;;;;;3.03;1.53;;;;;;;10.80;100.00;100408.19;4998222;28;20953;-72
2024/03/16 05:43:16;;;;;;;1.20;0.80;;;;;;;10.85;100.00;100416.50;5020696;28;20434;-72
2024/03/16 05:45:45;;;;;;;2.60;1.90;;;;;;;10.81;100.00;100423.38;5020148;28;20444;-72
2024/03/16 05:48:14;;;;;;;1.10;0.90;;;;;;;10.99;100.00;100421.88;5005592;28;20932;-70
2024/03/16 05:50:43;;;;;;;0.93;0.67;;;;;;;11.19;100.00;100417.13;5014521;28;20817;-72
2024/03/16 05:53:12;;;;;;;0.80;0.60;;;;;;;11.10;100.00;100415.75;5011990;28;20451;-72
2024/03/16 05:55:41;;;;;;;2.20;1.00;;;;;;;11.15;100.00;100419.47;5028940;28;20461;-71
2024/03/16 05:58:10;;;;;;;1.20;0.73;;;;;;;11.10;100.00;100432.00;5012130;28;20391;-72
2024/03/16 06:00:39;;;;;;;1.40;1.17;;;;;;;11.26;100.00;100432.31;5003676;28;20976;-71
2024/03/16 06:03:08;;;;;;;2.07;1.87;;;;;;;11.39;100.00;100435.97;5011922;28;20956;-72
2024/03/16 06:05:37;;;;;;;1.00;0.70;;;;;;;11.42;100.00;100435.56;5011448;28;20421;-71
2024/03/16 06:08:07;;;;;;;1.00;0.90;;;;;;;11.42;100.00;100433.69;5011740;28;20505;-70
2024/03/16 06:10:36;;;;;;;1.47;0.90;;;;;;;11.38;100.00;100439.72;5011611;28;20872;-72
2024/03/16 06:13:05;;;;;;;1.20;0.73;;;;;;;11.40;100.00;100441.19;5027659;28;20425;-71
2024/03/16 06:15:36;;;;;;;4.73;1.43;;;;;;;11.43;100.00;100438.03;4995512;28;20548;-72
2024/03/16 06:18:05;;;;;;;1.63;0.80;;;;;;;11.59;100.00;100442.94;5012010;28;20452;-71
2024/03/16 06:20:35;;;;;;;3.13;1.40;;;;;;;11.68;100.00;100444.31;4990558;28;20504;-71
2024/03/16 06:23:06;;;;;;;1.07;0.70;;;;;;;11.70;100.00;100447.66;5019869;28;21175;-70
2024/03/16 06:25:46;;;;;;;0.90;0.70;;;;;;;11.52;100.00;100442.13;5011474;28;20453;-70
2024/03/16 06:28:17;;;;;;;1.73;1.17;;;;;;;11.49;100.00;100448.00;5026421;28;20995;-71
2024/03/16 06:30:48;;;;;;;1.30;0.80;;;;;;;11.50;100.00;100449.66;5010114;28;20449;-71
2024/03/16 06:33:27;;;;;;;1.83;1.23;;;;;;;11.51;100.00;100450.50;5011803;28;20421;-71
2024/03/16 06:35:56;;;;;;;0.90;0.60;;;;;;;11.63;100.00;100457.69;5026766;28;20538;-71
2024/03/16 06:38:25;;;;;;;1.40;0.90;;;;;;;11.70;100.00;100453.06;5011377;28;20858;-71
2024/03/16 06:40:55;;;;;;;0.90;0.60;;;;;;;11.74;100.00;100450.78;5012372;28;20466;-72
2024/03/16 06:43:23;;;;;;;1.73;0.63;;;;;;;11.81;100.00;100453.44;5017284;28;20843;-72
2024/03/16 06:45:53;;;;;;;1.33;0.73;;;;;;;11.81;100.00;100456.16;5014304;28;20444;-73
2024/03/16 06:48:22;;;;;;;1.20;0.73;;;;;;;11.66;100.00;100453.72;5012134;28;20489;-72
2024/03/16 06:50:51;;;;;;;1.30;1.17;;;;;;;11.59;100.00;100470.03;4979792;28;20468;-71
2024/03/16 06:53:21;;;;;;;2.50;1.23;;;;;;;11.69;100.00;100475.81;5011297;28;20429;-71
2024/03/16 06:55:50;;;;;;;1.00;0.90;;;;;;;11.91;100.00;100478.19;5012024;28;20469;-72
2024/03/16 06:58:19;;;;;;;7.00;1.40;;;;;;;11.72;100.00;100475.38;5014762;28;20433;-72
2024/03/16 07:00:48;;;;;;;1.27;1.13;;;;;;;12.05;100.00;100485.16;5007142;28;20536;-72
2024/03/16 07:03:19;;;;;;;1.43;0.83;;;;;;;12.07;100.00;100493.88;5001675;28;20875;-71
2024/03/16 07:05:48;;;;;;;1.20;0.83;;;;;;;12.23;98.10;100482.47;5012535;28;20484;-71
2024/03/16 07:08:17;;;;;;;5.07;0.90;;;;;;;12.31;98.43;100494.91;4995293;28;20418;-71
2024/03/16 07:10:46;;;;;;;1.73;0.83;;;;;;;12.26;98.11;100487.44;4991552;28;20495;-71
2024/03/16 07:13:15;;;;;;;0.90;0.80;;;;;;;12.44;97.71;100501.03;4994320;28;20816;-71
2024/03/16 07:15:44;;;;;;;0.90;0.60;;;;;;;12.34;96.49;100500.75;5028338;28;20471;-71
2024/03/16 07:18:13;;;;;;;1.30;1.00;;;;;;;12.44;96.28;100509.19;4996149;28;20408;-71
2024/03/16 07:20:43;;;;;;;1.63;0.77;;;;;;;12.38;96.00;100510.09;5009120;28;20835;-71
2024/03/16 07:23:12;;;;;;;1.10;0.80;;;;;;;12.42;95.79;100510.47;5010937;28;20433;-71
2024/03/16 07:25:42;;;;;;;1.63;0.73;;;;;;;12.40;95.11;100513.41;5023150;28;20686;-71
2024/03/16 07:28:11;;;;;;;1.10;0.70;;;;;;;12.39;95.76;100519.06;5010798;28;20838;-71
2024/03/16 07:30:40;;;;;;;1.53;1.00;;;;;;;12.42;95.98;100518.63;5009989;28;20455;-70
2024/03/16 07:33:11;;;;;;;1.13;0.67;;;;;;;12.50;94.16;100526.47;5029847;28;20439;-70
2024/03/16 07:35:41;;;;;;;1.53;0.90;;;;;;;12.57;94.78;100522.66;5011330;28;20461;-71
2024/03/16 07:38:10;;;;;;;1.27;1.17;;;;;;;12.56;94.62;100526.41;5011196;28;20531;-71
2024/03/16 07:40:39;;;;;;;2.57;1.07;;;;;;;12.64;93.77;100526.09;5010626;28;20423;-72
2024/03/16 07:43:09;;;;;;;0.87;0.53;;;;;;;12.68;92.78;100520.25;5010677;28;20532;-71
2024/03/16 07:45:41;;;;;;;0.93;0.60;;;;;;;12.51;93.26;100525.41;5010286;28;20419;-71
2024/03/16 07:48:10;;;;;;;3.23;0.90;;;;;;;12.61;93.48;100523.84;4992101;28;20808;-71
2024/03/16 07:50:39;;;;;;;1.00;0.83;;;;;;;12.84;92.41;100516.91;5026493;28;20453;-72
2024/03/16 07:53:10;;;;;;;2.77;0.80;;;;;;;13.00;90.17;100519.03;4991739;28;20991;-70
2024/03/16 07:55:39;;;;;;;3.63;1.00;;;;;;;13.00;90.63;100517.16;5013959;28;20433;-71
2024/03/16 07:58:08;;;;;;;0.90;0.60;;;;;;;13.04;89.85;100525.66;5028065;28;20444;-71
2024/03/16 08:00:37;;;;;;;0.80;0.50;;;;;;;13.03;90.08;100521.28;5030345;28;20492;-70
2024/03/16 08:03:06;;;;;;;3.27;1.17;;;;;;;13.04;89.99;100522.97;5014358;28;20820;-70
2024/03/16 08:05:36;;;;;;;1.00;0.60;;;;;;;13.01;90.51;100529.69;5013914;28;20432;-70
2024/03/16 08:08:05;;;;;;;4.30;1.13;;;;;;;13.17;89.52;100522.81;5027122;28;20424;-70
2024/03/16 08:10:34;;;;;;;2.60;0.90;;;;;;;13.12;88.87;100530.81;5014783;28;20470;-71
2024/03/16 08:13:03;;;;;;;1.33;0.93;;;;;;;13.10;88.46;100532.09;5014669;28;20429;-70
2024/03/16 08:15:32;;;;;;;0.97;0.70;;;;;;;12.90;89.76;100527.72;5030303;28;20419;-70
2024/03/16 08:18:04;;;;;;;1.20;0.80;;;;;;;12.87;89.49;100528.19;5027678;28;20537;-70
2024/03/16 08:20:33;;;;;;;2.20;1.10;;;;;;;12.81;89.93;100530.97;5014122;28;20468;-71
2024/03/16 08:23:03;;;;;;;1.00;0.70;;;;;;;12.98;89.92;100534.72;5012171;28;20533;-71
2024/03/16 08:25:33;;;;;;;2.53;0.97;;;;;;;12.91;89.94;100534.81;5029116;28;20403;-69
2024/03/16 08:28:02;;;;;;;1.10;0.80;;;;;;;12.80;90.06;100537.44;5032165;28;20418;-71
2024/03/16 08:30:31;;;;;;;0.90;0.60;;;;;;;12.91;89.95;100529.38;5013144;28;20762;-69
2024/03/16 08:33:00;;;;;;;2.03;0.70;;;;;;;12.93;89.27;100531.84;5016779;28;20423;-70
2024/03/16 08:35:32;;;;;;;1.23;0.80;;;;;;;13.12;88.62;100530.81;5002140;28;20548;-70
2024/03/16 08:38:01;;;;;;;1.10;0.93;;;;;;;13.22;88.42;100547.41;4995806;28;20496;-71
2024/03/16 08:40:29;;;;;;;3.20;0.97;;;;;;;13.25;89.03;100536.13;5015188;28;20523;-70
2024/03/16 08:42:59;;;;;;;1.30;0.70;;;;;;;13.29;89.12;100536.47;5031619;28;20421;-71
2024/03/16 08:45:28;;;;;;;1.57;0.80;;;;;;;13.24;89.63;100539.06;4998693;28;20456;-70
2024/03/16 08:47:57;;;;;;;1.23;1.13;;;;;;;13.28;88.73;100537.53;5022489;28;20432;-69
2024/03/16 08:50:27;;;;;;;7.60;1.23;;;;;;;13.41;88.79;100534.63;5011980;28;20515;-71
2024/03/16 08:52:56;;;;;;;3.60;1.93;;;;;;;13.49;87.89;100537.88;5028964;28;20436;-71
2024/03/16 08:55:25;;;;;;;1.70;1.40;;;;;;;13.42;88.40;100545.28;5010792;28;20495;-72
2024/03/16 08:57:54;;;;;;;1.57;1.10;;;;;;;13.25;88.30;100541.56;5001734;28;20996;-72
2024/03/16 09:00:25;;;;;;;3.10;0.63;;;;;;;13.35;87.46;100533.69;5023159;28;20468;-72
2024/03/16 09:02:53;;;;;;;3.03;0.90;;;;;;;13.54;87.17;100533.66;5011579;28;20432;-72
2024/03/16 09:05:22;;;;;;;1.87;1.07;;;;;;;13.67;86.84;100537.00;5013778;28;20464;-71
2024/03/16 09:07:51;;;;;;;3.07;1.27;;;;;;;13.66;86.22;100539.94;5011568;28;20466;-71
2024/03/16 09:10:20;;;;;;;0.93;0.60;;;;;;;13.80;85.41;100544.97;5013117;28;21023;-71
2024/03/16 09:12:50;;;;;;;6.67;1.30;;;;;;;14.04;83.95;100548.56;5027515;28;20412;-71
2024/03/16 09:15:19;;;;;;;3.90;1.00;;;;;;;14.02;84.02;100548.00;4999806;28;20446;-71
2024/03/16 09:17:48;;;;;;;1.60;1.23;;;;;;;14.31;83.78;100541.66;5030344;28;20439;-70
2024/03/16 09:20:17;;;;;;;1.50;1.03;;;;;;;14.30;83.11;100548.16;4993054;28;20432;-71
2024/03/16 09:22:47;;;;;;;1.20;0.93;;;;;;;14.46;82.52;100548.56;5025972;28;20446;-70
2024/03/16 09:25:20;;;;;;;2.70;0.77;;;;;;;13.96;83.53;100548.91;5008705;28;20438;-71
2024/03/16 09:27:49;;;;;;;0.90;0.60;;;;;;;14.11;83.06;100562.09;5008947;28;20529;-70
2024/03/16 09:30:19;;;;;;;1.77;1.17;;;;;;;13.94;83.16;100557.31;4994689;28;20457;-72
2024/03/16 09:32:48;;;;;;;1.33;0.93;;;;;;;14.24;83.15;100557.25;5025996;28;20493;-71
2024/03/16 09:35:17;;;;;;;4.93;1.17;;;;;;;14.49;81.90;100556.25;4995765;28;20396;-71
2024/03/16 09:37:46;;;;;;;0.90;0.60;;;;;;;15.04;79.54;100556.72;5016487;28;20486;-71
2024/03/16 09:40:15;;;;;;;1.77;0.83;;;;;;;15.46;77.42;100549.13;5028168;28;20495;-71
2024/03/16 09:42:45;;;;;;;2.30;0.97;;;;;;;15.48;75.86;100560.63;4980525;28;20418;-71
2024/03/16 09:45:17;;;;;;;2.40;0.77;;;;;;;15.60;74.88;100556.81;4997279;28;20415;-71
2024/03/16 09:47:45;;;;;;;1.73;0.90;;;;;;;15.21;74.50;100552.16;5010833;28;20892;-72
2024/03/16 09:50:14;;;;;;;1.60;1.13;;;;;;;15.29;75.26;100548.25;4974932;28;20479;-70
2024/03/16 09:52:42;;;;;;;1.47;0.80;;;;;;;15.36;74.21;100559.81;4983505;28;20843;-72
2024/03/16 09:55:10;;;;;;;3.77;1.00;;;;;;;15.26;74.76;100548.72;5028157;28;20408;-71
2024/03/16 09:57:39;;;;;;;3.23;1.70;;;;;;;15.79;73.03;100562.06;5016223;28;20464;-70
2024/03/16 10:00:09;;;;;;;1.00;0.90;;;;;;;15.47;72.40;100561.69;4979974;28;20962;-71
2024/03/16 10:02:40;;;;;;;1.43;1.23;;;;;;;15.48;73.13;100563.34;4999925;28;20919;-71
2024/03/16 10:05:11;;;;;;;1.40;1.00;;;;;;;15.79;72.17;100549.25;5012828;28;20432;-71
2024/03/16 10:07:43;;;;;;;1.20;1.10;;;;;;;15.85;71.07;100556.47;5023095;28;20440;-71
2024/03/16 10:10:13;;;;;;;2.00;1.23;;;;;;;15.63;71.91;100555.50;4987915;28;20433;-71
2024/03/16 10:12:41;;;;;;;2.33;1.43;;;;;;;15.39;73.05;100554.72;4996134;28;20444;-71
2024/03/16 10:15:16;;;;;;;1.10;0.60;;;;;;;15.48;73.04;100557.91;5012677;28;20437;-71
2024/03/16 10:17:44;;;;;;;1.27;0.73;;;;;;;15.28;73.22;100554.75;5008166;28;20463;-73
2024/03/16 10:20:16;;;;;;;1.53;0.90;;;;;;;15.06;73.56;100566.28;4989456;28;20449;-73
2024/03/16 10:22:45;;;;;;;3.00;1.40;;;;;;;14.87;75.46;100562.03;4995699;28;20439;-71
2024/03/16 10:25:13;;;;;;;2.50;1.47;;;;;;;14.35;77.72;100569.22;4980031;28;20411;-71
2024/03/16 10:27:42;;;;;;;1.33;1.23;;;;;;;13.84;85.23;100578.81;4981996;28;20400;-70
2024/03/16 10:30:12;;;;;;;2.23;2.03;;;;;;;13.61;90.62;100578.69;5027598;28;20460;-71
2024/03/16 10:32:41;;;;;;;2.30;2.10;;;;;;;13.47;93.37;100588.91;5016334;28;20978;-70
2024/03/16 10:35:10;;;;;;;1.30;1.00;;;;;;;13.19;96.41;100595.97;4995135;28;20447;-71
2024/03/16 10:37:38;;;;;;;2.27;1.60;;;;;;;13.27;100.00;100599.19;5015394;28;20468;-71
2024/03/16 10:40:16;;;;;;;1.43;1.03;;;;;;;12.97;100.00;100601.00;5027709;28;20817;-70
2024/03/16 10:42:44;;;;;;;3.17;1.40;;;;;;;12.68;100.00;100598.97;4980856;28;20528;-71
2024/03/16 10:45:13;;;;;;;2.90;2.20;;;;;;;12.35;100.00;100602.78;5011732;28;20456;-70
2024/03/16 10:47:43;;;;;;;1.67;1.57;;;;;;;12.47;100.00;100609.16;5007701;28;20592;-70
2024/03/16 10:50:11;;;;;;;2.80;1.50;;;;;;;12.70;100.00;100602.28;4982148;28;20440;-71
2024/03/16 10:52:41;;;;;;;4.23;2.43;;;;;;;12.73;100.00;100602.66;5010964;28;20426;-71
2024/03/16 10:55:11;;;;;;;2.07;1.40;;;;;;;12.82;100.00;100605.94;5027722;28;20429;-71
2024/03/16 10:57:39;;;;;;;2.17;1.77;;;;;;;12.95;100.00;100608.53;4984933;28;20467;-72
2024/03/16 11:00:12;;;;;;;1.80;1.27;;;;;;;13.05;100.00;100617.81;4982511;28;20435;-72
2024/03/16 11:02:49;;;;;;;2.90;2.13;;;;;;;13.15;100.00;100627.38;5015839;28;20429;-71
2024/03/16 11:05:36;;;;;;;11.00;2.40;;;;;;;12.96;100.00;100619.16;5005673;28;20418;-71
2024/03/16 11:08:41;;;;;;;2.63;2.00;;;;;;;12.81;100.00;100615.13;4994412;28;20517;-71
2024/03/16 11:11:10;;;;;;;7.03;2.70;;;;;;;12.87;100.00;100614.25;4967007;28;20532;-71
2024/03/16 11:13:39;;;;;;;3.77;2.87;;;;;;;13.14;100.00;100615.66;5027309;28;20421;-71
2024/03/16 11:16:28;;;;;;;7.17;3.23;;;;;;;13.54;100.00;100621.47;5017105;28;20982;-71
2024/03/16 11:18:56;;;;;;;3.23;2.40;;;;;;;13.65;100.00;100619.88;4987875;28;20501;-72
2024/03/16 11:21:26;;;;;;;4.73;2.50;;;;;;;13.85;100.00;100623.97;4977965;28;20441;-71
2024/03/16 11:23:54;;;;;;;3.40;2.87;;;;;;;13.55;100.00;100622.31;4994793;28;20451;-72
2024/03/16 11:26:31;;;;;;;3.80;3.13;;;;;;;13.77;100.00;100610.69;5031679;28;20445;-71
2024/03/16 11:29:14;;;;;;;2.67;1.97;;;;;;;13.74;100.00;100618.50;4978541;28;20457;-71
2024/03/16 11:31:41;;;;;;;7.63;2.83;;;;;;;13.18;100.00;100611.44;4997432;28;20429;-71
2024/03/16 11:34:13;;;;;;;4.93;2.67;;;;;;;13.03;100.00;100616.38;5014548;28;20403;-72